Time;durP1;ratioP1;P1;durP2;ratioP2;P2;SDS_P1;SDS_P2;PMS_P1;PMS_P2;Temp;Humidity;BMP_temperature;BMP_pressure;BME280_temperature;BME280_humidity;BME280_pressure;Samples;Min_cycle;Max_cycle;Signal;HPM_P1;HPM_P2
2024/01/14 00:00:55;;;;;;;11.32;4.47;;;6.60;99.90;;;;;;5065630;28;20180;-50
2024/01/14 00:03:20;;;;;;;6.32;3.47;;;6.60;99.90;;;;;;5064204;28;20025;-47
2024/01/14 00:05:46;;;;;;;7.47;3.47;;;6.60;99.90;;;;;;5065187;28;20021;-46
2024/01/14 00:08:12;;;;;;;9.65;4.50;;;6.60;99.90;;;;;;5065286;28;20099;-51
2024/01/14 00:10:37;;;;;;;10.75;4.47;;;6.60;99.90;;;;;;5065588;28;20323;-47
2024/01/14 00:13:03;;;;;;;10.25;3.92;;;6.60;99.90;;;;;;5065590;28;20033;-49
2024/01/14 00:15:29;;;;;;;6.05;2.80;;;6.60;99.90;;;;;;5064775;28;20045;-48
2024/01/14 00:17:54;;;;;;;7.20;3.05;;;6.60;99.90;;;;;;5065440;28;20060;-48
2024/01/14 00:20:21;;;;;;;6.20;3.13;;;6.50;99.90;;;;;;5065303;28;20048;-47
2024/01/14 00:22:47;;;;;;;6.32;2.58;;;6.50;99.90;;;;;;5065258;28;20025;-46
2024/01/14 00:25:13;;;;;;;10.90;6.80;;;6.50;99.90;;;;;;5064854;28;20197;-47
2024/01/14 00:27:39;;;;;;;11.82;5.20;;;6.50;99.90;;;;;;5064971;28;20029;-51
2024/01/14 00:30:06;;;;;;;6.47;3.00;;;6.50;99.90;;;;;;5064673;28;20059;-48
2024/01/14 00:32:32;;;;;;;6.40;2.65;;;6.50;99.90;;;;;;5065771;28;20079;-47
2024/01/14 00:34:57;;;;;;;6.30;3.67;;;6.50;99.90;;;;;;5065153;28;20334;-50
2024/01/14 00:37:24;;;;;;;4.65;2.10;;;6.50;99.90;;;;;;5064876;28;20114;-49
2024/01/14 00:39:49;;;;;;;5.00;1.90;;;6.50;99.90;;;;;;5063883;28;20047;-50
2024/01/14 00:42:16;;;;;;;4.75;1.90;;;6.50;99.90;;;;;;5065105;28;20033;-48
2024/01/14 00:44:42;;;;;;;3.00;2.00;;;6.50;99.90;;;;;;5065309;28;20021;-48
2024/01/14 00:47:07;;;;;;;7.93;2.70;;;6.40;99.90;;;;;;5065775;28;20183;-50
2024/01/14 00:49:33;;;;;;;3.83;2.00;;;6.50;99.90;;;;;;5068893;28;20039;-50
2024/01/14 00:51:59;;;;;;;4.05;1.67;;;6.50;99.90;;;;;;5068668;28;20302;-51
2024/01/14 00:54:25;;;;;;;7.10;1.70;;;6.50;99.90;;;;;;5068788;28;20227;-50
2024/01/14 00:56:50;;;;;;;4.65;1.65;;;6.50;99.90;;;;;;5068582;28;20214;-51
2024/01/14 00:59:16;;;;;;;4.55;1.70;;;6.50;99.90;;;;;;5068811;28;20063;-51
2024/01/14 01:01:42;;;;;;;8.80;1.90;;;6.50;99.90;;;;;;5068399;28;20027;-51
2024/01/14 01:04:07;;;;;;;3.47;1.83;;;6.50;99.90;;;;;;5068785;28;20025;-48
2024/01/14 01:06:33;;;;;;;4.70;1.67;;;6.50;99.90;;;;;;5068456;28;20305;-49
2024/01/14 01:09:00;;;;;;;4.13;1.70;;;6.50;99.90;;;;;;5068297;28;20017;-49
2024/01/14 01:11:25;;;;;;;2.55;1.42;;;6.50;99.90;;;;;;5067413;28;20037;-47
2024/01/14 01:13:51;;;;;;;4.70;1.60;;;6.40;99.90;;;;;;5068147;28;20168;-48
2024/01/14 01:16:17;;;;;;;3.63;1.58;;;6.50;99.90;;;;;;5068694;28;20047;-48
2024/01/14 01:18:43;;;;;;;4.90;2.10;;;6.50;99.90;;;;;;5068667;28;20044;-48
2024/01/14 01:21:08;;;;;;;3.28;1.48;;;6.40;99.90;;;;;;5068188;28;20029;-49
2024/01/14 01:23:34;;;;;;;3.65;1.50;;;6.40;99.90;;;;;;5067790;28;20017;-50
2024/01/14 01:26:00;;;;;;;3.47;1.50;;;6.30;99.90;;;;;;5066899;28;20029;-48
2024/01/14 01:28:25;;;;;;;2.25;1.20;;;6.40;99.90;;;;;;5068042;28;20033;-48
2024/01/14 01:30:51;;;;;;;2.10;1.30;;;6.40;99.90;;;;;;5068758;28;20275;-51
2024/01/14 01:33:17;;;;;;;1.75;1.00;;;6.40;99.90;;;;;;5067873;28;20033;-51
2024/01/14 01:35:42;;;;;;;2.85;1.17;;;6.40;99.90;;;;;;5068197;28;20096;-48
2024/01/14 01:38:08;;;;;;;3.90;1.23;;;6.40;99.90;;;;;;5067878;28;20025;-49
2024/01/14 01:40:34;;;;;;;5.95;1.35;;;6.30;99.90;;;;;;5067335;28;20035;-50
2024/01/14 01:42:59;;;;;;;3.70;1.45;;;6.30;99.90;;;;;;5067678;28;20035;-50
2024/01/14 01:45:25;;;;;;;2.08;1.10;;;6.10;99.90;;;;;;5066547;28;20033;-50
2024/01/14 01:47:51;;;;;;;2.35;1.20;;;6.10;99.90;;;;;;5066820;28;20056;-50
2024/01/14 01:50:17;;;;;;;3.13;1.40;;;6.00;99.90;;;;;;5050013;28;20195;-50
2024/01/14 01:52:43;;;;;;;4.55;1.40;;;5.90;99.90;;;;;;5067604;28;20036;-50
2024/01/14 01:55:08;;;;;;;5.78;1.67;;;5.80;99.90;;;;;;5067521;28;20043;-50
2024/01/14 01:57:34;;;;;;;3.17;1.60;;;5.80;99.90;;;;;;5066645;28;20037;-49
2024/01/14 02:00:00;;;;;;;3.42;1.50;;;5.70;99.90;;;;;;5065662;28;20021;-48
2024/01/14 02:02:25;;;;;;;4.80;2.10;;;5.70;99.90;;;;;;5049736;28;20063;-46
2024/01/14 02:04:51;;;;;;;5.50;2.00;;;5.70;99.90;;;;;;5068072;28;20044;-47
2024/01/14 02:07:18;;;;;;;3.40;1.80;;;5.70;99.90;;;;;;5049744;28;20100;-48
2024/01/14 02:09:43;;;;;;;4.05;1.60;;;5.70;99.90;;;;;;5066536;28;20036;-49
2024/01/14 02:12:09;;;;;;;4.20;1.50;;;5.60;99.90;;;;;;5067151;28;20079;-50
2024/01/14 02:14:35;;;;;;;4.10;1.45;;;5.60;99.90;;;;;;5066811;28;20071;-49
2024/01/14 02:17:00;;;;;;;5.70;1.65;;;5.60;99.90;;;;;;5065973;28;20162;-50
2024/01/14 02:19:26;;;;;;;4.47;1.40;;;5.60;99.90;;;;;;5067049;28;20033;-49
2024/01/14 02:22:09;;;;;;;4.70;1.70;;;5.60;99.90;;;;;;5066828;28;20025;-50
2024/01/14 02:24:35;;;;;;;4.65;1.60;;;5.50;99.90;;;;;;5065786;28;20020;-50
2024/01/14 02:27:00;;;;;;;3.42;1.40;;;5.50;99.90;;;;;;5065929;28;20352;-50
2024/01/14 02:29:28;;;;;;;2.95;1.27;;;5.50;99.90;;;;;;5066541;28;20091;-50
2024/01/14 02:31:54;;;;;;;3.20;1.35;;;5.40;99.90;;;;;;5066675;28;20029;-49
2024/01/14 02:34:20;;;;;;;7.28;1.52;;;5.40;99.90;;;;;;5066595;28;20111;-49
2024/01/14 02:36:45;;;;;;;4.25;1.42;;;5.30;99.90;;;;;;5067083;28;20191;-49
2024/01/14 02:39:11;;;;;;;3.17;1.20;;;5.30;99.90;;;;;;5067078;28;20167;-49
2024/01/14 02:41:37;;;;;;;4.03;1.20;;;5.20;99.90;;;;;;5066413;28;20033;-48
2024/01/14 02:44:02;;;;;;;1.60;1.17;;;5.20;99.90;;;;;;5066335;28;20017;-50
2024/01/14 02:46:29;;;;;;;3.45;1.70;;;5.20;99.90;;;;;;5066523;28;20056;-49
2024/01/14 02:48:54;;;;;;;2.95;1.30;;;5.10;99.90;;;;;;5066473;28;20033;-48
2024/01/14 02:51:20;;;;;;;3.20;1.20;;;5.10;99.90;;;;;;5066410;28;20187;-49
2024/01/14 02:53:45;;;;;;;5.65;2.65;;;5.10;99.90;;;;;;5066263;28;20196;-48
2024/01/14 02:56:11;;;;;;;3.45;1.20;;;5.00;99.90;;;;;;5066339;28;20029;-46
2024/01/14 02:58:37;;;;;;;1.38;1.00;;;5.00;99.90;;;;;;5066305;28;20228;-47
2024/01/14 03:01:03;;;;;;;5.88;1.15;;;5.00;99.90;;;;;;5065196;28;20029;-45
2024/01/14 03:03:29;;;;;;;2.70;0.93;;;5.00;99.90;;;;;;5065883;28;20287;-46
2024/01/14 03:05:54;;;;;;;2.33;1.05;;;5.00;99.90;;;;;;5066124;28;20183;-49
2024/01/14 03:08:20;;;;;;;4.03;1.55;;;4.90;99.90;;;;;;5066198;28;20274;-49
2024/01/14 03:10:46;;;;;;;3.55;1.20;;;4.90;99.90;;;;;;5064308;28;20082;-49
2024/01/14 03:13:13;;;;;;;3.88;1.10;;;4.90;99.90;;;;;;5066051;28;20028;-48
2024/01/14 03:15:39;;;;;;;2.20;0.98;;;4.90;99.90;;;;;;5065684;28;20315;-49
2024/01/14 03:18:05;;;;;;;2.08;1.00;;;4.90;99.90;;;;;;5064792;28;20037;-49
2024/01/14 03:20:31;;;;;;;3.05;1.30;;;4.90;99.90;;;;;;5065063;28;20074;-48
2024/01/14 03:22:56;;;;;;;3.38;1.20;;;4.90;99.90;;;;;;5064769;28;20025;-50
2024/01/14 03:25:22;;;;;;;2.17;1.00;;;4.80;99.90;;;;;;5064673;28;20329;-49
2024/01/14 03:27:48;;;;;;;3.08;1.20;;;4.80;99.90;;;;;;5066478;28;20028;-49
2024/01/14 03:30:13;;;;;;;3.17;1.15;;;4.70;99.90;;;;;;5065691;28;20049;-50
2024/01/14 03:32:39;;;;;;;5.10;1.20;;;4.60;99.90;;;;;;5064663;28;20288;-50
2024/01/14 03:35:05;;;;;;;1.67;1.10;;;4.50;99.90;;;;;;5064667;28;20036;-50
2024/01/14 03:37:31;;;;;;;1.90;1.00;;;4.40;99.90;;;;;;5065777;28;20068;-49
2024/01/14 03:39:57;;;;;;;2.53;0.93;;;4.40;99.90;;;;;;5065772;28;20056;-49
2024/01/14 03:42:23;;;;;;;3.15;1.10;;;4.40;99.90;;;;;;5065693;28;20021;-49
2024/01/14 03:44:49;;;;;;;1.75;0.95;;;4.40;99.90;;;;;;5065557;28;20032;-49
2024/01/14 03:47:15;;;;;;;3.22;0.98;;;4.40;99.90;;;;;;5065179;28;20033;-48
2024/01/14 03:49:40;;;;;;;3.78;1.20;;;4.40;99.90;;;;;;5065277;28;20346;-49
2024/01/14 03:52:06;;;;;;;2.95;1.10;;;4.50;99.90;;;;;;5065440;28;20178;-46
2024/01/14 03:54:32;;;;;;;4.55;1.20;;;4.50;99.90;;;;;;5065884;28;20106;-46
2024/01/14 03:56:57;;;;;;;3.15;1.20;;;4.50;99.90;;;;;;5065595;28;20025;-46
2024/01/14 03:59:23;;;;;;;5.03;1.20;;;4.60;99.90;;;;;;5065134;28;20096;-49
2024/01/14 04:01:49;;;;;;;3.35;1.15;;;4.70;99.90;;;;;;5065176;28;20040;-49
2024/01/14 04:04:15;;;;;;;2.20;0.90;;;4.80;99.90;;;;;;5065237;28;20029;-48
2024/01/14 04:06:40;;;;;;;2.63;1.10;;;4.90;99.90;;;;;;5065343;28;20037;-48
2024/01/14 04:09:06;;;;;;;4.22;1.10;;;4.90;99.90;;;;;;5065320;28;20100;-49
2024/01/14 04:11:32;;;;;;;3.78;1.30;;;4.90;99.90;;;;;;5065180;28;20032;-48
2024/01/14 04:13:57;;;;;;;3.35;1.05;;;5.00;99.90;;;;;;5065322;28;20033;-48
2024/01/14 04:16:24;;;;;;;2.13;1.15;;;5.00;99.90;;;;;;5065423;28;20153;-49
2024/01/14 04:18:49;;;;;;;3.17;1.00;;;5.10;99.90;;;;;;5065224;28;20017;-49
2024/01/14 04:21:24;;;;;;;3.25;1.40;;;5.10;99.90;;;;;;5065088;28;20302;-49
2024/01/14 04:23:50;;;;;;;2.60;1.00;;;5.10;99.90;;;;;;5068489;28;20039;-49
2024/01/14 04:26:22;;;;;;;3.35;1.00;;;5.10;99.90;;;;;;5069138;28;20095;-49
2024/01/14 04:28:49;;;;;;;1.95;0.90;;;5.10;99.90;;;;;;5069175;28;20104;-49
2024/01/14 04:31:15;;;;;;;3.53;1.00;;;5.10;99.90;;;;;;5068551;28;20035;-50
2024/01/14 04:33:41;;;;;;;5.28;1.00;;;5.20;99.90;;;;;;5068751;28;20044;-49
2024/01/14 04:36:06;;;;;;;3.58;1.30;;;5.10;99.90;;;;;;5068780;28;20029;-48
2024/01/14 04:38:32;;;;;;;2.83;1.00;;;5.20;99.90;;;;;;5069071;28;20274;-49
2024/01/14 04:40:58;;;;;;;3.38;1.23;;;5.20;99.90;;;;;;5068867;28;20040;-46
2024/01/14 04:43:23;;;;;;;2.90;1.25;;;5.20;99.90;;;;;;5067588;28;20028;-46
2024/01/14 04:45:49;;;;;;;2.08;0.98;;;5.20;99.90;;;;;;5067780;28;20048;-49
2024/01/14 04:48:15;;;;;;;3.55;0.93;;;5.20;99.90;;;;;;5068628;28;20041;-45
2024/01/14 04:50:41;;;;;;;1.83;1.10;;;5.20;99.90;;;;;;5067560;28;20056;-46
2024/01/14 04:53:06;;;;;;;1.58;0.93;;;5.20;99.90;;;;;;5067665;28;20032;-46
2024/01/14 04:55:32;;;;;;;3.13;1.08;;;5.20;99.90;;;;;;5068480;28;20127;-48
2024/01/14 04:57:58;;;;;;;4.82;3.50;;;5.20;99.90;;;;;;5068602;28;20029;-47
2024/01/14 05:00:24;;;;;;;6.72;6.13;;;5.20;99.90;;;;;;5068497;28;20198;-49
2024/01/14 05:02:50;;;;;;;4.20;1.65;;;5.20;99.90;;;;;;5067947;28;20028;-48
2024/01/14 05:05:15;;;;;;;3.40;1.20;;;5.20;99.90;;;;;;5068331;28;20289;-46
2024/01/14 05:07:41;;;;;;;2.70;1.20;;;5.20;99.90;;;;;;5068234;28;20025;-47
2024/01/14 05:10:10;;;;;;;2.75;1.35;;;5.20;99.90;;;;;;5068201;28;20309;-46
2024/01/14 05:12:35;;;;;;;2.47;1.20;;;5.20;99.90;;;;;;5068344;28;20097;-46
2024/01/14 05:15:01;;;;;;;4.63;1.35;;;5.10;99.90;;;;;;5067891;28;20048;-47
2024/01/14 05:17:27;;;;;;;2.83;1.10;;;5.00;99.90;;;;;;5068194;28;20108;-47
2024/01/14 05:19:53;;;;;;;1.92;1.13;;;5.00;99.90;;;;;;5068199;28;20029;-47
2024/01/14 05:22:18;;;;;;;1.65;0.93;;;4.90;99.90;;;;;;5068007;28;20070;-46
2024/01/14 05:24:45;;;;;;;4.25;1.13;;;4.80;99.90;;;;;;5068088;28;20033;-45
2024/01/14 05:27:13;;;;;;;3.95;1.30;;;4.80;99.90;;;;;;5068076;28;20078;-48
2024/01/14 05:29:42;;;;;;;3.75;1.20;;;4.70;99.90;;;;;;5066837;28;20037;-46
2024/01/14 05:32:12;;;;;;;3.50;1.20;;;4.70;99.90;;;;;;5067866;28;20037;-49
2024/01/14 05:34:38;;;;;;;1.67;1.02;;;4.70;99.90;;;;;;5066732;28;20025;-49
2024/01/14 05:37:03;;;;;;;4.35;2.70;;;4.80;99.90;;;;;;5067800;28;20106;-49
2024/01/14 05:39:30;;;;;;;1.98;1.13;;;4.80;99.90;;;;;;5067678;28;20039;-50
2024/01/14 05:41:56;;;;;;;2.58;1.23;;;4.80;99.90;;;;;;5067502;28;20079;-48
2024/01/14 05:44:21;;;;;;;3.58;1.20;;;4.90;99.90;;;;;;5067742;28;20029;-46
2024/01/14 05:46:47;;;;;;;4.57;1.30;;;5.00;99.90;;;;;;5066587;28;20086;-45
2024/01/14 05:49:13;;;;;;;4.80;1.42;;;5.00;99.90;;;;;;5067181;28;20048;-49
2024/01/14 05:51:39;;;;;;;2.10;1.20;;;5.00;99.90;;;;;;5067551;28;20267;-49
2024/01/14 05:54:04;;;;;;;3.67;1.35;;;5.10;99.90;;;;;;5067382;28;20232;-47
2024/01/14 05:56:30;;;;;;;5.28;1.30;;;5.00;99.90;;;;;;5067335;28;20032;-48
2024/01/14 05:58:56;;;;;;;5.45;1.40;;;5.00;99.90;;;;;;5067505;28;20162;-48
2024/01/14 06:01:22;;;;;;;4.47;1.20;;;4.80;99.90;;;;;;5067279;28;20191;-49
2024/01/14 06:03:47;;;;;;;6.45;1.58;;;4.70;99.90;;;;;;5067229;28;20025;-49
2024/01/14 06:06:13;;;;;;;3.65;1.60;;;4.60;99.90;;;;;;5066766;28;20049;-50
2024/01/14 06:08:41;;;;;;;3.75;1.30;;;4.60;99.90;;;;;;5067320;28;20053;-49
2024/01/14 06:11:06;;;;;;;3.00;1.27;;;4.50;99.90;;;;;;5067150;28;20028;-50
2024/01/14 06:13:32;;;;;;;4.13;1.77;;;4.40;99.90;;;;;;5067097;28;20071;-47
2024/01/14 06:15:58;;;;;;;2.00;1.20;;;4.30;99.90;;;;;;5066749;28;20076;-47
2024/01/14 06:18:24;;;;;;;3.28;1.50;;;4.30;99.90;;;;;;5065875;28;20068;-48
2024/01/14 06:20:50;;;;;;;3.22;1.33;;;4.30;99.90;;;;;;5066481;28;20029;-49
2024/01/14 06:23:16;;;;;;;4.60;1.65;;;4.20;99.90;;;;;;5066716;28;20035;-50
2024/01/14 06:25:42;;;;;;;2.60;1.60;;;4.20;99.90;;;;;;5066707;28;20024;-48
2024/01/14 06:28:07;;;;;;;3.70;1.50;;;4.10;99.90;;;;;;5066668;28;20097;-53
2024/01/14 06:30:34;;;;;;;7.88;4.30;;;4.00;99.90;;;;;;5066609;28;20032;-47
2024/01/14 06:33:00;;;;;;;4.45;2.00;;;3.90;99.90;;;;;;5066726;28;20090;-48
2024/01/14 06:35:25;;;;;;;5.03;1.60;;;3.80;99.90;;;;;;5066433;28;20037;-48
2024/01/14 06:37:51;;;;;;;2.00;1.42;;;3.80;99.90;;;;;;5066236;28;20302;-49
2024/01/14 06:40:17;;;;;;;3.03;1.38;;;3.80;99.90;;;;;;5066931;28;20028;-49
2024/01/14 06:42:43;;;;;;;3.33;1.27;;;3.80;99.90;;;;;;5066717;28;20025;-49
2024/01/14 06:45:09;;;;;;;3.13;1.35;;;3.70;99.90;;;;;;5066323;28;20043;-47
2024/01/14 06:47:35;;;;;;;2.15;1.30;;;3.60;99.90;;;;;;5066161;28;20301;-48
2024/01/14 06:50:00;;;;;;;3.47;1.60;;;3.60;99.90;;;;;;5066523;28;20068;-50
2024/01/14 06:52:26;;;;;;;2.42;1.58;;;3.50;99.90;;;;;;5066366;28;20032;-47
2024/01/14 06:54:52;;;;;;;3.45;1.40;;;3.50;99.90;;;;;;5066336;28;20289;-46
2024/01/14 06:57:18;;;;;;;4.22;1.92;;;3.50;99.90;;;;;;5066367;28;20092;-46
2024/01/14 06:59:44;;;;;;;2.83;1.55;;;3.40;99.90;;;;;;5065009;28;20052;-45
2024/01/14 07:02:12;;;;;;;2.22;1.20;;;3.40;99.90;;;;;;5066168;28;20158;-46
2024/01/14 07:04:38;;;;;;;2.65;1.30;;;3.40;99.90;;;;;;5065121;28;20203;-45
2024/01/14 07:07:04;;;;;;;3.53;1.40;;;3.30;99.90;;;;;;5066090;28;20037;-45
2024/01/14 07:09:29;;;;;;;3.30;1.50;;;3.30;99.90;;;;;;5065602;28;20032;-45
2024/01/14 07:11:55;;;;;;;3.97;1.70;;;3.20;99.90;;;;;;5065964;28;20047;-46
2024/01/14 07:14:22;;;;;;;4.72;1.80;;;3.20;99.90;;;;;;5064593;28;20320;-46
2024/01/14 07:16:48;;;;;;;6.68;1.55;;;3.20;99.90;;;;;;5065805;28;20093;-47
2024/01/14 07:19:15;;;;;;;1.73;1.20;;;3.20;99.90;;;;;;5065598;28;20028;-46
2024/01/14 07:21:40;;;;;;;2.75;1.40;;;3.20;99.90;;;;;;5065566;28;20029;-47
2024/01/14 07:24:06;;;;;;;1.88;1.40;;;3.20;99.90;;;;;;5065866;28;20035;-45
2024/01/14 07:26:32;;;;;;;3.40;1.42;;;3.20;99.90;;;;;;5066007;28;20024;-45
2024/01/14 07:28:57;;;;;;;2.03;1.33;;;3.10;99.90;;;;;;5065946;28;20098;-47
2024/01/14 07:31:30;;;;;;;3.25;1.40;;;3.10;99.90;;;;;;5065592;28;20033;-46
2024/01/14 07:33:56;;;;;;;3.42;1.45;;;3.00;99.90;;;;;;5064716;28;20017;-45
2024/01/14 07:36:21;;;;;;;3.85;1.45;;;3.10;99.90;;;;;;5065547;28;20029;-45
2024/01/14 07:38:47;;;;;;;3.50;1.48;;;3.10;99.90;;;;;;5065720;28;20021;-45
2024/01/14 07:41:13;;;;;;;3.00;1.55;;;3.10;99.90;;;;;;5064401;28;20049;-46
2024/01/14 07:43:42;;;;;;;3.17;1.33;;;3.10;99.90;;;;;;5064360;28;20028;-45
2024/01/14 07:46:08;;;;;;;5.53;1.80;;;3.10;99.90;;;;;;5065337;28;20052;-45
2024/01/14 07:48:34;;;;;;;3.53;1.30;;;3.20;99.90;;;;;;5065544;28;20025;-45
2024/01/14 07:51:00;;;;;;;2.75;1.58;;;3.20;99.90;;;;;;5065475;28;20029;-45
2024/01/14 07:53:26;;;;;;;2.72;1.40;;;3.20;99.90;;;;;;5065370;28;20025;-45
2024/01/14 07:55:51;;;;;;;3.90;1.52;;;3.30;99.90;;;;;;5065412;28;20290;-47
2024/01/14 07:58:17;;;;;;;3.25;1.52;;;3.30;99.90;;;;;;5068099;28;20028;-49
2024/01/14 08:00:46;;;;;;;5.13;1.90;;;3.40;99.90;;;;;;5068550;28;20217;-49
2024/01/14 08:03:12;;;;;;;4.88;2.00;;;3.40;99.90;;;;;;5068616;28;20025;-49
2024/01/14 08:05:38;;;;;;;3.03;2.15;;;3.50;99.90;;;;;;5069582;28;20037;-49
2024/01/14 08:08:04;;;;;;;4.07;1.70;;;3.60;99.90;;;;;;5069264;28;20025;-49
2024/01/14 08:10:30;;;;;;;4.85;2.00;;;3.70;99.90;;;;;;5068288;28;20028;-46
2024/01/14 08:12:57;;;;;;;4.72;1.75;;;3.70;99.90;;;;;;5069207;28;20036;-46
2024/01/14 08:15:22;;;;;;;4.60;1.70;;;3.70;99.90;;;;;;5068941;28;20072;-46
2024/01/14 08:17:48;;;;;;;6.78;1.90;;;3.70;99.90;;;;;;5069042;28;20044;-46
2024/01/14 08:20:14;;;;;;;5.93;1.58;;;3.70;99.90;;;;;;5069358;28;20033;-47
2024/01/14 08:22:39;;;;;;;2.08;1.30;;;3.70;99.90;;;;;;5069320;28;20017;-46
2024/01/14 08:25:05;;;;;;;2.83;1.48;;;3.60;99.90;;;;;;5069147;28;20079;-46
2024/01/14 08:27:31;;;;;;;3.83;1.45;;;3.60;99.90;;;;;;5068135;28;20048;-46
2024/01/14 08:29:57;;;;;;;3.08;1.30;;;3.70;99.90;;;;;;5068753;28;20292;-47
2024/01/14 08:32:23;;;;;;;4.60;1.40;;;3.70;99.90;;;;;;5068957;28;20025;-45
2024/01/14 08:34:48;;;;;;;4.22;1.60;;;3.70;99.90;;;;;;5069006;28;20052;-46
2024/01/14 08:37:14;;;;;;;2.63;1.33;;;3.70;99.90;;;;;;5068364;28;20167;-45
2024/01/14 08:39:40;;;;;;;4.07;1.45;;;3.70;99.90;;;;;;5068814;28;20214;-46
2024/01/14 08:42:06;;;;;;;5.35;1.60;;;3.70;99.90;;;;;;5068814;28;20259;-46
2024/01/14 08:44:31;;;;;;;3.03;1.33;;;3.70;99.90;;;;;;5068747;28;20036;-46
2024/01/14 08:46:57;;;;;;;3.85;1.48;;;3.60;99.90;;;;;;5068196;28;20036;-47
2024/01/14 08:49:29;;;;;;;4.20;1.70;;;3.60;99.90;;;;;;5068656;28;20056;-45
2024/01/14 08:51:55;;;;;;;3.42;1.80;;;3.60;99.90;;;;;;5068824;28;20101;-46
2024/01/14 08:54:21;;;;;;;4.78;1.80;;;3.60;99.90;;;;;;5067533;28;20044;-48
2024/01/14 08:56:46;;;;;;;3.17;1.90;;;3.60;99.90;;;;;;5067615;28;20101;-45
2024/01/14 08:59:12;;;;;;;3.78;1.95;;;3.50;99.90;;;;;;5067330;28;20083;-47
2024/01/14 09:01:38;;;;;;;4.53;2.08;;;3.50;99.90;;;;;;5068386;28;20179;-45
2024/01/14 09:04:04;;;;;;;6.43;1.90;;;3.60;99.90;;;;;;5067516;28;20033;-48
2024/01/14 09:06:29;;;;;;;4.13;1.80;;;3.60;99.90;;;;;;5068374;28;20021;-49
2024/01/14 09:08:55;;;;;;;5.30;1.80;;;3.60;99.90;;;;;;5068327;28;20217;-49
2024/01/14 09:11:20;;;;;;;5.32;2.20;;;3.60;99.90;;;;;;5068091;28;20347;-49
2024/01/14 09:13:46;;;;;;;6.78;3.22;;;3.70;99.90;;;;;;5067988;28;20028;-49
2024/01/14 09:16:12;;;;;;;6.28;3.13;;;3.70;99.90;;;;;;5067551;28;20073;-50
2024/01/14 09:18:38;;;;;;;8.10;2.95;;;3.70;99.90;;;;;;5068102;28;20104;-49
2024/01/14 09:21:04;;;;;;;5.32;1.90;;;3.80;99.90;;;;;;5068097;28;20131;-49
2024/01/14 09:23:31;;;;;;;4.95;2.13;;;3.90;99.90;;;;;;5067941;28;20025;-49
2024/01/14 09:25:57;;;;;;;6.18;2.47;;;4.10;99.90;;;;;;5067732;28;20053;-47
2024/01/14 09:28:26;;;;;;;5.20;2.40;;;4.30;99.90;;;;;;5066843;28;20021;-47
2024/01/14 09:30:51;;;;;;;5.88;1.98;;;4.30;99.90;;;;;;5067893;28;20080;-47
2024/01/14 09:33:18;;;;;;;3.97;1.88;;;4.40;99.90;;;;;;5067930;28;20078;-49
2024/01/14 09:35:43;;;;;;;6.28;3.25;;;4.50;99.90;;;;;;5067673;28;20052;-46
2024/01/14 09:38:09;;;;;;;6.13;2.10;;;4.60;99.90;;;;;;5067626;28;20036;-49
2024/01/14 09:40:35;;;;;;;5.10;2.00;;;4.70;99.90;;;;;;5067696;28;20047;-47
2024/01/14 09:43:03;;;;;;;6.25;2.65;;;4.80;99.90;;;;;;5067661;28;20017;-46
2024/01/14 09:45:28;;;;;;;7.03;2.85;;;5.00;99.90;;;;;;5067055;28;20032;-47
2024/01/14 09:47:54;;;;;;;5.38;2.40;;;5.10;99.90;;;;;;5049679;28;20035;-48
2024/01/14 09:50:20;;;;;;;8.02;2.83;;;5.20;99.90;;;;;;5066449;28;20037;-46
2024/01/14 09:52:46;;;;;;;6.78;2.50;;;5.30;99.90;;;;;;5066486;28;20088;-46
2024/01/14 09:55:11;;;;;;;5.63;2.10;;;5.40;99.90;;;;;;5049804;28;20096;-46
2024/01/14 09:57:37;;;;;;;9.60;2.42;;;5.50;99.90;;;;;;5067402;28;20337;-46
2024/01/14 10:00:05;;;;;;;4.47;1.65;;;5.60;99.90;;;;;;5049767;28;20025;-47
2024/01/14 10:02:34;;;;;;;3.92;1.63;;;5.60;99.90;;;;;;5067254;28;20032;-50
2024/01/14 10:05:00;;;;;;;8.48;2.65;;;5.70;99.90;;;;;;5067190;28;20082;-48
2024/01/14 10:07:26;;;;;;;6.18;2.03;;;5.80;99.90;;;;;;5066824;28;20210;-46
2024/01/14 10:09:52;;;;;;;5.60;1.92;;;6.00;99.90;;;;;;5067115;28;20041;-49
2024/01/14 10:12:18;;;;;;;4.45;1.60;;;6.20;99.90;;;;;;5067191;28;20159;-51
2024/01/14 10:14:44;;;;;;;5.72;1.90;;;6.40;99.90;;;;;;5066704;28;20222;-49
2024/01/14 10:17:13;;;;;;;4.35;2.20;;;6.70;99.90;;;;;;5066991;28;20041;-49
2024/01/14 10:19:39;;;;;;;4.95;1.50;;;7.00;99.90;;;;;;5066387;28;20025;-50
2024/01/14 10:22:05;;;;;;;6.80;1.63;;;7.00;99.90;;;;;;5066745;28;20060;-48
2024/01/14 10:24:32;;;;;;;3.22;1.63;;;7.00;99.90;;;;;;5065734;28;20029;-50
2024/01/14 10:26:57;;;;;;;5.47;1.10;;;7.00;99.90;;;;;;5066789;28;20021;-51
2024/01/14 10:29:24;;;;;;;7.57;3.10;;;6.90;99.90;;;;;;5065500;28;20314;-51
2024/01/14 10:31:49;;;;;;;3.90;1.70;;;6.80;99.90;;;;;;5066617;28;20313;-50
2024/01/14 10:34:18;;;;;;;3.75;1.05;;;6.80;99.90;;;;;;5065544;28;20104;-49
2024/01/14 10:36:45;;;;;;;5.82;0.98;;;6.70;99.90;;;;;;5066608;28;20032;-49
2024/01/14 10:39:12;;;;;;;2.08;1.67;;;6.70;99.90;;;;;;5065408;28;20029;-49
2024/01/14 10:41:38;;;;;;;1.88;0.98;;;6.80;99.90;;;;;;5066237;28;20017;-47
2024/01/14 10:44:04;;;;;;;2.95;1.00;;;7.10;99.90;;;;;;5065610;28;20206;-47
2024/01/14 10:46:30;;;;;;;4.25;1.05;;;7.00;99.90;;;;;;5065371;28;20032;-48
2024/01/14 10:49:07;;;;;;;2.00;1.05;;;7.10;99.90;;;;;;5066324;28;20302;-48
2024/01/14 10:51:42;;;;;;;6.07;1.00;;;7.10;99.90;;;;;;5066096;28;20044;-49
2024/01/14 10:54:20;;;;;;;2.30;0.80;;;7.10;99.90;;;;;;5065428;28;20052;-47
2024/01/14 10:56:54;;;;;;;5.28;1.20;;;7.20;99.90;;;;;;5065431;28;20087;-50
2024/01/14 10:59:21;;;;;;;3.60;1.10;;;7.30;99.90;;;;;;5065030;28;20020;-48
2024/01/14 11:01:49;;;;;;;4.75;0.90;;;7.30;99.90;;;;;;5065965;28;20028;-47
2024/01/14 11:04:17;;;;;;;2.33;1.00;;;7.30;99.90;;;;;;5065181;28;20021;-49
2024/01/14 11:06:44;;;;;;;2.47;1.15;;;7.20;99.90;;;;;;5066201;28;20074;-47
2024/01/14 11:09:09;;;;;;;3.88;0.73;;;7.10;99.90;;;;;;5066105;28;20237;-48
2024/01/14 11:11:53;;;;;;;3.05;1.23;;;7.00;99.90;;;;;;5066120;28;20048;-50
2024/01/14 11:14:34;;;;;;;2.97;0.90;;;7.00;99.90;;;;;;5031928;28;20112;-47
2024/01/14 11:17:27;;;;;;;4.60;1.88;;;7.30;99.90;;;;;;5048669;28;20086;-48
2024/01/14 11:19:53;;;;;;;5.47;1.02;;;7.40;99.90;;;;;;5064951;28;20190;-47
2024/01/14 11:22:20;;;;;;;2.85;1.00;;;7.40;99.90;;;;;;5064855;28;20024;-48
2024/01/14 11:24:46;;;;;;;4.78;1.35;;;7.50;99.90;;;;;;5065275;28;20028;-48
2024/01/14 11:27:13;;;;;;;4.28;1.48;;;7.70;99.90;;;;;;5064809;28;20116;-50
2024/01/14 11:29:42;;;;;;;9.68;2.90;;;8.00;99.90;;;;;;5064470;28;20067;-50
2024/01/14 11:32:09;;;;;;;4.83;1.03;;;8.00;99.90;;;;;;5064641;28;20041;-48
2024/01/14 11:34:47;;;;;;;7.20;2.08;;;7.90;99.90;;;;;;5065736;28;20032;-48
2024/01/14 11:37:47;;;;;;;7.43;1.38;;;7.70;99.90;;;;;;5065199;28;20036;-49
2024/01/14 11:40:27;;;;;;;4.28;1.50;;;7.70;99.90;;;;;;5065454;28;20021;-47
2024/01/14 11:43:01;;;;;;;5.00;1.20;;;7.90;99.90;;;;;;5065438;28;20061;-50
2024/01/14 11:45:26;;;;;;;5.28;1.27;;;7.90;99.90;;;;;;5065164;28;20050;-50
2024/01/14 11:47:53;;;;;;;5.10;1.55;;;8.00;99.90;;;;;;5065280;28;20052;-50
2024/01/14 11:50:19;;;;;;;4.35;1.58;;;7.90;99.90;;;;;;5065453;28;20067;-50
2024/01/14 11:52:45;;;;;;;4.75;1.77;;;7.80;99.90;;;;;;5064495;28;20290;-50
2024/01/14 11:55:14;;;;;;;2.97;1.20;;;7.70;99.90;;;;;;5064894;28;20032;-50
2024/01/14 11:57:40;;;;;;;2.70;1.40;;;7.60;99.90;;;;;;5065494;28;20101;-47
2024/01/14 12:00:07;;;;;;;5.57;1.20;;;7.60;99.90;;;;;;5064404;28;20044;-50
2024/01/14 12:02:33;;;;;;;3.40;1.00;;;7.50;99.90;;;;;;5064245;28;20156;-47
2024/01/14 12:05:20;;;;;;;4.32;0.82;;;7.40;99.90;;;;;;5064353;28;20031;-49
2024/01/14 12:07:46;;;;;;;2.33;1.00;;;7.30;99.90;;;;;;5065280;28;20056;-50
2024/01/14 12:10:15;;;;;;;9.13;1.80;;;7.30;99.90;;;;;;5065174;28;20048;-50
2024/01/14 12:12:42;;;;;;;3.63;0.90;;;8.40;99.90;;;;;;5065266;28;20251;-50
2024/01/14 12:15:09;;;;;;;2.88;1.00;;;10.70;99.90;;;;;;5064965;28;20180;-50
2024/01/14 12:17:35;;;;;;;5.15;1.00;;;12.60;99.90;;;;;;5065260;28;20067;-50
2024/01/14 12:20:01;;;;;;;5.03;1.20;;;12.50;99.90;;;;;;5064898;28;20178;-51
2024/01/14 12:22:27;;;;;;;5.65;2.28;;;11.50;99.90;;;;;;5063858;28;20029;-50
2024/01/14 12:24:54;;;;;;;3.10;1.13;;;11.00;99.90;;;;;;5064994;28;20362;-51
2024/01/14 12:27:20;;;;;;;5.32;1.20;;;12.30;99.90;;;;;;5064606;28;20098;-52
2024/01/14 12:29:45;;;;;;;2.65;1.00;;;11.40;99.90;;;;;;5063799;28;20095;-50
2024/01/14 12:32:11;;;;;;;2.33;0.70;;;10.40;99.90;;;;;;5064869;28;20029;-51
2024/01/14 12:34:43;;;;;;;4.28;1.00;;;9.60;99.90;;;;;;5065036;28;20036;-49
2024/01/14 12:37:10;;;;;;;3.25;0.80;;;8.90;99.90;;;;;;5064936;28;20033;-50
2024/01/14 12:39:36;;;;;;;3.17;0.60;;;8.50;99.90;;;;;;5065171;28;20021;-50
2024/01/14 12:42:02;;;;;;;4.63;0.88;;;8.20;99.90;;;;;;5064916;28;20098;-49
2024/01/14 12:44:31;;;;;;;2.35;0.80;;;8.00;99.90;;;;;;5067739;28;20283;-51
2024/01/14 12:47:14;;;;;;;4.78;1.15;;;7.90;99.90;;;;;;5068485;28;20095;-51
2024/01/14 12:49:40;;;;;;;3.95;1.25;;;7.70;99.90;;;;;;5050709;28;20041;-51
2024/01/14 12:52:07;;;;;;;2.75;0.85;;;7.70;99.90;;;;;;5050971;28;20151;-48
2024/01/14 12:54:32;;;;;;;2.20;0.70;;;7.60;99.90;;;;;;5068426;28;20028;-51